createdAt,value
2023-02-01T00:00:05.766Z,83.21
2023-02-01T00:01:05.754Z,83.31
2023-02-01T00:02:05.744Z,83.31
2023-02-01T00:03:05.732Z,83.31
2023-02-01T00:04:05.716Z,83.42
2023-02-01T00:05:05.712Z,83.52
2023-02-01T00:06:05.731Z,83.52
2023-02-01T00:07:05.689Z,83.63
2023-02-01T00:08:05.692Z,83.63
2023-02-01T00:09:05.661Z,83.63
2023-02-01T00:10:05.659Z,83.73
2023-02-01T00:11:05.647Z,83.83
2023-02-01T00:12:05.633Z,83.83
2023-02-01T00:13:05.616Z,84.04
2023-02-01T00:14:05.612Z,84.14
2023-02-01T00:15:05.650Z,84.25
2023-02-01T00:16:05.672Z,84.35
2023-02-01T00:17:05.594Z,84.45
2023-02-01T00:18:05.561Z,84.45
2023-02-01T00:19:05.561Z,84.45
2023-02-01T00:20:05.594Z,84.45
2023-02-01T00:21:05.571Z,84.35
2023-02-01T00:22:05.520Z,84.35
2023-02-01T00:23:05.521Z,84.25
2023-02-01T00:24:05.511Z,84.04
2023-02-01T00:25:05.496Z,83.83
2023-02-01T00:26:05.472Z,83.63
2023-02-01T00:27:05.472Z,83.31
2023-02-01T00:28:05.458Z,83.21
2023-02-01T00:29:05.481Z,83.11
2023-02-01T00:30:05.433Z,83.11
2023-02-01T00:31:05.629Z,82.90
2023-02-01T00:32:05.536Z,82.90
2023-02-01T00:33:05.397Z,82.59
2023-02-01T00:34:05.415Z,82.28
2023-02-01T00:35:05.380Z,82.18
2023-02-01T00:36:05.366Z,82.18
2023-02-01T00:37:05.367Z,82.18
2023-02-01T00:38:05.347Z,82.08
2023-02-01T00:39:05.330Z,82.08
2023-02-01T00:40:05.326Z,81.97
2023-02-01T00:41:05.318Z,81.87
2023-02-01T00:42:05.309Z,81.76
2023-02-01T00:43:05.294Z,81.56
2023-02-01T00:44:05.290Z,81.56
2023-02-01T00:45:05.285Z,81.35
2023-02-01T00:46:05.444Z,81.25
2023-02-01T00:47:05.284Z,81.45
2023-02-01T00:48:05.261Z,81.45
2023-02-01T00:49:05.233Z,81.66
2023-02-01T00:50:05.315Z,81.56
2023-02-01T00:51:05.223Z,81.45
2023-02-01T00:52:05.205Z,81.45
2023-02-01T00:53:05.193Z,81.66
2023-02-01T00:54:05.193Z,81.76
2023-02-01T00:55:05.154Z,81.87
2023-02-01T00:56:05.155Z,81.97
2023-02-01T00:57:05.131Z,82.08
2023-02-01T00:58:05.125Z,82.08
2023-02-01T00:59:05.124Z,82.08
2023-02-01T01:00:05.110Z,82.18
2023-02-01T01:01:05.109Z,82.28
2023-02-01T01:02:05.115Z,82.39
2023-02-01T01:03:05.089Z,82.49
2023-02-01T01:04:05.053Z,82.49
2023-02-01T01:05:05.048Z,82.49
2023-02-01T01:06:05.035Z,82.59
2023-02-01T01:07:05.024Z,82.59
2023-02-01T01:08:05.016Z,82.59
2023-02-01T01:09:04.997Z,82.80
2023-02-01T01:10:04.994Z,82.84
2023-02-01T01:11:04.991Z,82.94
2023-02-01T01:12:04.965Z,83.05
2023-02-01T01:13:04.956Z,83.15
2023-02-01T01:14:04.951Z,83.25
2023-02-01T01:15:04.929Z,83.25
2023-02-01T01:16:04.971Z,83.25
2023-02-01T01:17:04.916Z,83.35
2023-02-01T01:18:04.910Z,83.35
2023-02-01T01:19:04.920Z,83.35
2023-02-01T01:20:04.886Z,83.35
2023-02-01T01:21:04.883Z,83.45
2023-02-01T01:22:04.876Z,83.45
2023-02-01T01:23:04.850Z,83.45
2023-02-01T01:24:04.834Z,83.45
2023-02-01T01:25:04.828Z,83.45
2023-02-01T01:26:06.723Z,83.56
2023-02-01T01:27:04.811Z,83.56
2023-02-01T01:28:04.792Z,83.56
2023-02-01T01:29:04.785Z,83.56
2023-02-01T01:30:04.781Z,83.56
2023-02-01T01:31:04.884Z,83.56
2023-02-01T01:32:04.759Z,83.56
2023-02-01T01:33:04.747Z,83.56
2023-02-01T01:34:04.725Z,83.56
2023-02-01T01:35:04.752Z,83.56
2023-02-01T01:36:04.711Z,83.45
2023-02-01T01:37:04.697Z,83.45
2023-02-01T01:38:04.703Z,83.45
2023-02-01T01:39:04.680Z,83.56
2023-02-01T01:40:04.663Z,83.60
2023-02-01T01:41:04.651Z,83.60
2023-02-01T01:42:04.645Z,83.56
2023-02-01T01:43:04.638Z,83.60
2023-02-01T01:44:04.627Z,83.60
2023-02-01T01:45:04.629Z,83.50
2023-02-01T01:46:04.594Z,83.50
2023-02-01T01:47:04.586Z,83.60
2023-02-01T01:48:04.572Z,83.45
2023-02-01T01:49:04.560Z,83.39
2023-02-01T01:50:04.548Z,83.39
2023-02-01T01:51:04.562Z,83.29
2023-02-01T01:52:04.539Z,83.25
2023-02-01T01:53:04.534Z,83.19
2023-02-01T01:54:04.512Z,83.19
2023-02-01T01:55:04.510Z,83.19
2023-02-01T01:56:04.483Z,83.29
2023-02-01T01:57:04.481Z,83.25
2023-02-01T01:58:04.467Z,83.25
2023-02-01T01:59:04.453Z,83.05
2023-02-01T02:00:04.450Z,83.05
2023-02-01T02:01:04.488Z,82.94
2023-02-01T02:02:04.475Z,82.94
2023-02-01T02:03:04.405Z,82.84
2023-02-01T02:04:04.400Z,82.63
2023-02-01T02:05:04.396Z,82.53
2023-02-01T02:06:04.370Z,82.53
2023-02-01T02:07:04.394Z,82.53
2023-02-01T02:08:04.351Z,82.42
2023-02-01T02:09:06.923Z,82.53
2023-02-01T02:10:04.324Z,82.53
2023-02-01T02:11:04.325Z,82.42
2023-02-01T02:12:04.313Z,82.32
2023-02-01T02:13:04.303Z,82.22
2023-02-01T02:14:04.340Z,82.22
2023-02-01T02:15:04.268Z,82.32
2023-02-01T02:16:04.368Z,82.22
2023-02-01T02:17:04.245Z,82.22
2023-02-01T02:18:04.234Z,82.22
2023-02-01T02:19:04.224Z,82.11
2023-02-01T02:20:04.213Z,82.11
2023-02-01T02:21:04.199Z,82.11
2023-02-01T02:22:04.210Z,82.11
2023-02-01T02:23:04.215Z,82.01
2023-02-01T02:24:04.169Z,82.01
2023-02-01T02:25:04.176Z,82.01
2023-02-01T02:26:04.145Z,82.11
2023-02-01T02:27:04.139Z,82.01
2023-02-01T02:28:04.131Z,82.01
2023-02-01T02:29:04.132Z,82.01
2023-02-01T02:30:04.099Z,82.11
2023-02-01T02:31:04.126Z,82.01
2023-02-01T02:32:04.084Z,81.90
2023-02-01T02:33:04.068Z,82.01
2023-02-01T02:34:04.060Z,82.01
2023-02-01T02:35:04.045Z,82.01
2023-02-01T02:36:04.042Z,82.01
2023-02-01T02:37:04.029Z,82.01
2023-02-01T02:38:04.017Z,81.90
2023-02-01T02:39:04.027Z,81.90
2023-02-01T02:40:03.986Z,82.01
2023-02-01T02:41:03.975Z,81.90
2023-02-01T02:42:03.969Z,82.01
2023-02-01T02:43:03.960Z,82.01
2023-02-01T02:44:03.945Z,82.01
2023-02-01T02:45:03.944Z,82.01
2023-02-01T02:46:04.003Z,82.01
2023-02-01T02:47:03.911Z,82.11
2023-02-01T02:48:03.901Z,82.11
2023-02-01T02:49:03.885Z,82.11
2023-02-01T02:50:03.874Z,82.11
2023-02-01T02:51:03.864Z,82.11
2023-02-01T02:52:03.856Z,82.22
2023-02-01T02:53:03.845Z,82.22
2023-02-01T02:54:03.838Z,82.11
2023-02-01T02:55:03.861Z,82.11
2023-02-01T02:56:03.813Z,82.11
2023-02-01T02:57:03.808Z,82.11
2023-02-01T02:58:03.788Z,82.01
2023-02-01T02:59:03.780Z,82.01
2023-02-01T03:00:03.789Z,82.01
2023-02-01T03:01:03.851Z,82.11
2023-02-01T03:02:03.748Z,82.22
2023-02-01T03:03:03.763Z,82.32
2023-02-01T03:04:03.735Z,82.32
2023-02-01T03:05:03.714Z,82.32
2023-02-01T03:06:03.707Z,82.22
2023-02-01T03:07:03.685Z,82.22
2023-02-01T03:08:03.680Z,82.22
2023-02-01T03:09:03.667Z,82.22
2023-02-01T03:10:03.656Z,82.22
2023-02-01T03:11:03.675Z,82.32
2023-02-01T03:12:03.638Z,82.32
2023-02-01T03:13:03.629Z,82.22
2023-02-01T03:14:03.622Z,82.32
2023-02-01T03:15:03.595Z,82.32
2023-02-01T03:16:03.598Z,82.32
2023-02-01T03:17:03.577Z,82.32
2023-02-01T03:18:03.583Z,82.32
2023-02-01T03:19:03.554Z,82.28
2023-02-01T03:20:03.537Z,82.28
2023-02-01T03:21:03.527Z,82.28
2023-02-01T03:22:03.525Z,82.28
2023-02-01T03:23:03.512Z,82.18
2023-02-01T03:24:03.502Z,82.18
2023-02-01T03:25:03.510Z,82.08
2023-02-01T03:26:03.477Z,82.08
2023-02-01T03:27:03.507Z,81.97
2023-02-01T03:28:03.447Z,81.97
2023-02-01T03:29:03.444Z,81.97
2023-02-01T03:30:03.437Z,81.97
2023-02-01T03:31:03.489Z,81.97
2023-02-01T03:32:03.540Z,81.97
2023-02-01T03:33:03.397Z,82.08
2023-02-01T03:34:03.385Z,82.08
2023-02-01T03:35:03.375Z,81.97
2023-02-01T03:36:03.372Z,81.97
2023-02-01T03:37:03.350Z,81.97
2023-02-01T03:38:03.338Z,81.87
2023-02-01T03:39:03.337Z,81.87
2023-02-01T03:40:03.322Z,81.66
2023-02-01T03:41:03.310Z,81.76
2023-02-01T03:42:03.300Z,81.66
2023-02-01T03:43:03.308Z,81.66
2023-02-01T03:44:03.292Z,81.66
2023-02-01T03:45:03.258Z,81.56
2023-02-01T03:46:03.317Z,81.56
2023-02-01T03:47:03.241Z,81.56
2023-02-01T03:48:03.229Z,81.56
2023-02-01T03:49:03.225Z,81.45
2023-02-01T03:50:03.202Z,81.45
2023-02-01T03:51:03.201Z,81.45
2023-02-01T03:52:03.270Z,81.56
2023-02-01T03:53:03.169Z,81.66
2023-02-01T03:54:03.183Z,81.66
2023-02-01T03:55:03.149Z,81.56
2023-02-01T03:56:03.134Z,81.56
2023-02-01T03:57:03.127Z,81.56
2023-02-01T03:58:03.115Z,81.56
2023-02-01T03:59:03.130Z,81.56
2023-02-01T04:00:03.103Z,81.56
2023-02-01T04:01:03.148Z,81.45
2023-02-01T04:02:03.131Z,81.56
2023-02-01T04:03:03.063Z,81.56
2023-02-01T04:04:03.056Z,81.56
2023-02-01T04:05:03.037Z,81.45
2023-02-01T04:06:03.035Z,81.35
2023-02-01T04:07:03.030Z,81.35
2023-02-01T04:08:03.016Z,81.35
2023-02-01T04:09:03.015Z,81.45
2023-02-01T04:10:02.983Z,81.45
2023-02-01T04:11:02.976Z,81.45
2023-02-01T04:12:02.959Z,81.45
2023-02-01T04:13:02.949Z,81.45
2023-02-01T04:14:02.971Z,81.56
2023-02-01T04:15:02.986Z,81.56
2023-02-01T04:16:02.927Z,81.45
2023-02-01T04:17:02.917Z,81.35
2023-02-01T04:18:02.898Z,81.35
2023-02-01T04:19:02.899Z,81.25
2023-02-01T04:20:02.898Z,81.25
2023-02-01T04:21:02.883Z,81.35
2023-02-01T04:22:02.867Z,81.31
2023-02-01T04:23:02.847Z,81.21
2023-02-01T04:24:02.846Z,81.10
2023-02-01T04:25:02.838Z,81.10
2023-02-01T04:26:02.808Z,81.10
2023-02-01T04:27:02.809Z,81.10
2023-02-01T04:28:02.792Z,81.10
2023-02-01T04:29:02.779Z,81.10
2023-02-01T04:30:02.765Z,81.10
2023-02-01T04:31:02.939Z,81.21
2023-02-01T04:32:02.745Z,81.21
2023-02-01T04:33:02.739Z,81.21
2023-02-01T04:34:02.727Z,81.21
2023-02-01T04:35:02.719Z,81.10
2023-02-01T04:36:02.703Z,81.00
2023-02-01T04:37:02.700Z,80.90
2023-02-01T04:38:02.684Z,80.90
2023-02-01T04:39:02.663Z,81.00
2023-02-01T04:40:02.658Z,81.00
2023-02-01T04:41:02.648Z,80.90
2023-02-01T04:42:02.644Z,80.90
2023-02-01T04:43:02.650Z,80.90
2023-02-01T04:44:02.623Z,80.90
2023-02-01T04:45:02.614Z,80.86
2023-02-01T04:46:02.622Z,80.76
2023-02-01T04:47:02.618Z,80.65
2023-02-01T04:48:02.568Z,80.65
2023-02-01T04:49:02.564Z,80.76
2023-02-01T04:50:02.556Z,80.76
2023-02-01T04:51:02.537Z,80.76
2023-02-01T04:52:02.526Z,80.76
2023-02-01T04:53:02.509Z,80.56
2023-02-01T04:54:02.498Z,80.65
2023-02-01T04:55:02.501Z,80.65
2023-02-01T04:56:02.484Z,80.56
2023-02-01T04:57:02.473Z,80.45
2023-02-01T04:58:02.459Z,80.45
2023-02-01T04:59:02.439Z,80.45
2023-02-01T05:00:02.429Z,80.45
2023-02-01T05:01:02.455Z,80.35
2023-02-01T05:02:02.425Z,80.35
2023-02-01T05:03:02.426Z,80.35
2023-02-01T05:04:02.385Z,80.35
2023-02-01T05:05:02.453Z,80.45
2023-02-01T05:06:02.370Z,80.35
2023-02-01T05:07:02.368Z,80.21
2023-02-01T05:08:02.354Z,80.14
2023-02-01T05:09:02.337Z,80.24
2023-02-01T05:10:02.327Z,80.24
2023-02-01T05:11:02.323Z,80.21
2023-02-01T05:12:02.322Z,80.21
2023-02-01T05:13:02.303Z,80.35
2023-02-01T05:14:02.746Z,80.35
2023-02-01T05:15:02.269Z,80.24
2023-02-01T05:16:02.330Z,80.24
2023-02-01T05:17:02.260Z,80.14
2023-02-01T05:18:02.234Z,80.14
2023-02-01T05:19:02.258Z,80.10
2023-02-01T05:20:02.244Z,80.00
2023-02-01T05:21:02.197Z,80.00
2023-02-01T05:22:02.200Z,80.10
2023-02-01T05:23:02.177Z,80.10
2023-02-01T05:24:02.167Z,80.10
2023-02-01T05:25:02.167Z,80.21
2023-02-01T05:26:02.176Z,80.21
2023-02-01T05:27:02.146Z,80.10
2023-02-01T05:28:02.140Z,80.10
2023-02-01T05:29:02.115Z,80.00
2023-02-01T05:30:02.108Z,79.90
2023-02-01T05:31:02.163Z,79.90
2023-02-01T05:32:19.523Z,79.90
2023-02-01T05:33:02.070Z,79.79
2023-02-01T05:34:02.068Z,79.69
2023-02-01T05:35:02.068Z,79.69
2023-02-01T05:36:02.041Z,79.69
2023-02-01T05:37:02.031Z,79.79
2023-02-01T05:38:02.017Z,79.79
2023-02-01T05:39:02.017Z,79.79
2023-02-01T05:40:02.002Z,79.79
2023-02-01T05:41:01.989Z,79.58
2023-02-01T05:42:01.966Z,79.48
2023-02-01T05:43:01.959Z,79.48
2023-02-01T05:44:01.959Z,79.48
2023-02-01T05:45:01.938Z,79.48
2023-02-01T05:46:01.979Z,79.38
2023-02-01T05:47:01.945Z,79.48
2023-02-01T05:48:01.928Z,79.58
2023-02-01T05:49:01.938Z,79.58
2023-02-01T05:50:01.940Z,79.58
2023-02-01T05:51:01.896Z,79.58
2023-02-01T05:52:01.866Z,79.48
2023-02-01T05:53:01.847Z,79.48
2023-02-01T05:54:01.843Z,79.48
2023-02-01T05:55:01.836Z,79.48
2023-02-01T05:56:01.815Z,79.58
2023-02-01T05:57:01.806Z,79.58
2023-02-01T05:58:01.795Z,79.38
2023-02-01T05:59:02.857Z,79.28
2023-02-01T06:00:01.771Z,79.38
2023-02-01T06:01:01.767Z,79.34
2023-02-01T06:02:01.757Z,79.24
2023-02-01T06:03:01.783Z,79.14
2023-02-01T06:04:01.799Z,79.14
2023-02-01T06:05:01.721Z,79.24
2023-02-01T06:06:01.713Z,79.14
2023-02-01T06:07:01.725Z,79.14
2023-02-01T06:08:01.692Z,79.14
2023-02-01T06:09:01.680Z,79.14
2023-02-01T06:10:01.682Z,79.24
2023-02-01T06:11:01.651Z,79.34
2023-02-01T06:12:01.651Z,79.48
2023-02-01T06:13:01.634Z,79.44
2023-02-01T06:14:01.625Z,79.44
2023-02-01T06:15:01.616Z,79.44
2023-02-01T06:16:01.678Z,79.58
2023-02-01T06:17:01.596Z,79.58
2023-02-01T06:18:01.577Z,79.90
2023-02-01T06:19:01.590Z,80.21
2023-02-01T06:20:01.554Z,80.21
2023-02-01T06:21:01.600Z,80.31
2023-02-01T06:22:01.582Z,80.41
2023-02-01T06:23:01.549Z,80.41
2023-02-01T06:24:01.538Z,80.51
2023-02-01T06:25:01.539Z,80.62
2023-02-01T06:26:01.499Z,80.62
2023-02-01T06:27:01.485Z,80.79
2023-02-01T06:28:01.475Z,80.79
2023-02-01T06:29:01.459Z,80.79
2023-02-01T06:30:01.496Z,80.79
2023-02-01T06:31:01.520Z,80.79
2023-02-01T06:32:01.556Z,80.99
2023-02-01T06:33:03.416Z,80.99
2023-02-01T06:34:01.401Z,81.10
2023-02-01T06:35:01.407Z,81.10
2023-02-01T06:36:01.388Z,81.10
2023-02-01T06:37:01.375Z,81.20
2023-02-01T06:38:01.365Z,81.34
2023-02-01T06:39:01.394Z,81.45
2023-02-01T06:40:01.340Z,81.45
2023-02-01T06:41:01.342Z,81.45
2023-02-01T06:42:01.315Z,81.55
2023-02-01T06:43:01.306Z,81.55
2023-02-01T06:44:01.296Z,81.55
2023-02-01T06:45:01.284Z,81.65
2023-02-01T06:46:01.281Z,81.65
2023-02-01T06:47:01.292Z,81.65
2023-02-01T06:48:01.262Z,81.55
2023-02-01T06:49:01.258Z,81.55
2023-02-01T06:50:01.240Z,81.45
2023-02-01T06:51:01.217Z,81.34
2023-02-01T06:52:01.208Z,81.24
2023-02-01T06:53:01.207Z,81.34
2023-02-01T06:54:01.207Z,81.55
2023-02-01T06:55:01.221Z,81.55
2023-02-01T06:56:01.198Z,81.55
2023-02-01T06:57:01.164Z,81.34
2023-02-01T06:58:01.155Z,81.24
2023-02-01T06:59:01.136Z,81.34
2023-02-01T07:00:01.137Z,81.24
2023-02-01T07:01:01.184Z,81.24
2023-02-01T07:02:01.260Z,81.24
2023-02-01T07:03:03.089Z,81.24
2023-02-01T07:04:01.088Z,81.14
2023-02-01T07:05:01.072Z,80.93
2023-02-01T07:06:01.054Z,80.93
2023-02-01T07:07:01.048Z,80.93
2023-02-01T07:08:01.052Z,80.72
2023-02-01T07:09:01.027Z,80.58
2023-02-01T07:10:03.014Z,80.58
2023-02-01T07:11:01.028Z,80.48
2023-02-01T07:12:01.015Z,80.37
2023-02-01T07:13:00.994Z,80.27
2023-02-01T07:14:00.983Z,80.07
2023-02-01T07:15:00.952Z,79.76
2023-02-01T07:16:01.001Z,79.76
2023-02-01T07:17:00.937Z,79.76
2023-02-01T07:18:00.932Z,79.86
2023-02-01T07:19:00.921Z,79.96
2023-02-01T07:20:00.917Z,79.96
2023-02-01T07:21:00.908Z,79.96
2023-02-01T07:22:00.893Z,79.96
2023-02-01T07:23:00.876Z,79.86
2023-02-01T07:24:00.867Z,79.79
2023-02-01T07:25:00.858Z,79.79
2023-02-01T07:26:00.842Z,80.00
2023-02-01T07:27:00.877Z,80.07
2023-02-01T07:28:00.816Z,80.21
2023-02-01T07:29:00.820Z,80.27
2023-02-01T07:30:00.810Z,80.41
2023-02-01T07:31:00.828Z,80.68
2023-02-01T07:32:00.784Z,80.79
2023-02-01T07:33:00.764Z,80.79
2023-02-01T07:34:00.749Z,80.79
2023-02-01T07:35:00.739Z,80.68
2023-02-01T07:36:00.733Z,80.48
2023-02-01T07:37:00.738Z,80.48
2023-02-01T07:38:00.717Z,80.48
2023-02-01T07:39:00.697Z,80.48
2023-02-01T07:40:00.722Z,80.37
2023-02-01T07:41:00.685Z,80.37
2023-02-01T07:42:00.660Z,80.34
2023-02-01T07:43:00.679Z,80.44
2023-02-01T07:44:00.654Z,80.23
2023-02-01T07:45:14.751Z,80.34
2023-02-01T07:46:00.682Z,80.44
2023-02-01T07:47:00.618Z,80.58
2023-02-01T07:48:00.598Z,80.75
2023-02-01T07:49:00.610Z,80.75
2023-02-01T07:50:00.584Z,80.89
2023-02-01T07:51:00.582Z,80.99
2023-02-01T07:52:00.559Z,81.31
2023-02-01T07:53:00.545Z,81.61
2023-02-01T07:54:00.539Z,81.92
2023-02-01T07:55:00.528Z,82.23
2023-02-01T07:56:00.544Z,82.44
2023-02-01T07:57:00.497Z,82.55
2023-02-01T07:58:00.494Z,82.75
2023-02-01T07:59:00.534Z,82.89
2023-02-01T08:00:00.467Z,83.09
2023-02-01T08:01:00.536Z,83.30
2023-02-01T08:02:00.499Z,83.51
2023-02-01T08:03:00.432Z,83.82
2023-02-01T08:04:00.444Z,84.23
2023-02-01T08:05:00.415Z,84.23
2023-02-01T08:06:00.416Z,84.48
2023-02-01T08:07:00.397Z,84.58
2023-02-01T08:08:00.381Z,84.68
2023-02-01T08:09:00.380Z,84.79
2023-02-01T08:10:00.373Z,84.79
2023-02-01T08:11:00.371Z,84.89
2023-02-01T08:12:00.337Z,84.99
2023-02-01T08:13:00.333Z,84.99
2023-02-01T08:14:00.430Z,85.10
2023-02-01T08:15:00.343Z,85.20
2023-02-01T08:16:00.319Z,85.30
2023-02-01T08:17:02.289Z,85.41
2023-02-01T08:18:00.268Z,85.41
2023-02-01T08:19:00.263Z,85.30
2023-02-01T08:20:00.251Z,85.41
2023-02-01T08:21:00.244Z,85.51
2023-02-01T08:22:00.261Z,85.62
2023-02-01T08:23:00.218Z,85.82
2023-02-01T08:24:00.208Z,85.93
2023-02-01T08:25:00.190Z,86.02
2023-02-01T08:26:00.184Z,85.93
2023-02-01T08:27:00.184Z,85.93
2023-02-01T08:28:00.163Z,86.13
2023-02-01T08:29:00.159Z,86.23
2023-02-01T08:30:00.263Z,86.34
2023-02-01T08:31:00.225Z,86.48
2023-02-01T08:32:00.282Z,86.59
2023-02-01T08:33:00.116Z,86.69
2023-02-01T08:34:00.174Z,86.89
2023-02-01T08:35:00.119Z,87.20
2023-02-01T08:36:00.103Z,87.41
2023-02-01T08:37:00.123Z,87.62
2023-02-01T08:38:00.087Z,87.62
2023-02-01T08:39:00.050Z,87.62
2023-02-01T08:40:00.062Z,87.62
2023-02-01T08:41:00.024Z,87.72
2023-02-01T08:42:00.009Z,87.72
2023-02-01T08:42:59.991Z,87.82
2023-02-01T08:43:59.981Z,87.93
2023-02-01T08:44:59.975Z,88.03
2023-02-01T08:45:59.985Z,88.14
2023-02-01T08:46:59.977Z,88.23
2023-02-01T08:47:59.937Z,88.34
2023-02-01T08:48:59.928Z,88.44
2023-02-01T08:49:59.914Z,88.44
2023-02-01T08:50:59.913Z,88.44
2023-02-01T08:52:04.107Z,88.34
2023-02-01T08:52:59.882Z,88.44
2023-02-01T08:53:59.885Z,88.44
2023-02-01T08:54:59.863Z,88.44
2023-02-01T08:55:59.853Z,88.69
2023-02-01T08:57:01.944Z,88.75
2023-02-01T08:57:59.832Z,88.75
2023-02-01T08:58:59.827Z,88.96
2023-02-01T08:59:59.816Z,88.96
2023-02-01T09:00:59.821Z,88.96
2023-02-01T09:01:59.789Z,89.06
2023-02-01T09:02:59.813Z,89.27
2023-02-01T09:03:59.861Z,89.17
2023-02-01T09:04:59.750Z,89.17
2023-02-01T09:05:59.741Z,89.27
2023-02-01T09:06:59.734Z,89.27
2023-02-01T09:07:59.723Z,89.17
2023-02-01T09:08:59.709Z,89.17
2023-02-01T09:09:59.694Z,89.17
2023-02-01T09:11:02.159Z,88.96
2023-02-01T09:11:59.684Z,88.96
2023-02-01T09:12:59.670Z,88.86
2023-02-01T09:13:59.660Z,88.86
2023-02-01T09:14:59.755Z,88.86
2023-02-01T09:15:59.763Z,88.65
2023-02-01T09:16:59.631Z,88.65
2023-02-01T09:17:59.608Z,88.65
2023-02-01T09:19:23.923Z,88.65
2023-02-01T09:19:59.583Z,88.54
2023-02-01T09:20:59.587Z,88.65
2023-02-01T09:21:59.565Z,88.65
2023-02-01T09:22:59.561Z,88.44
2023-02-01T09:23:59.552Z,88.34
2023-02-01T09:24:59.567Z,88.40
2023-02-01T09:25:59.519Z,88.20
2023-02-01T09:26:59.579Z,88.09
2023-02-01T09:27:59.508Z,87.99
2023-02-01T09:28:59.487Z,87.89
2023-02-01T09:29:59.483Z,87.89
2023-02-01T09:30:59.596Z,87.68
2023-02-01T09:32:03.988Z,87.57
2023-02-01T09:32:59.443Z,87.47
2023-02-01T09:33:59.472Z,87.37
2023-02-01T09:34:59.465Z,87.26
2023-02-01T09:35:59.419Z,87.06
2023-02-01T09:36:59.397Z,87.17
2023-02-01T09:37:59.393Z,87.17
2023-02-01T09:38:59.398Z,87.02
2023-02-01T09:39:59.372Z,87.02
2023-02-01T09:40:59.361Z,87.02
2023-02-01T09:41:59.361Z,87.02
2023-02-01T09:42:59.341Z,86.92
2023-02-01T09:43:59.322Z,86.85
2023-02-01T09:44:59.319Z,86.85
2023-02-01T09:45:59.327Z,86.75
2023-02-01T09:46:59.290Z,86.65
2023-02-01T09:47:59.287Z,86.75
2023-02-01T09:48:59.272Z,86.96
2023-02-01T09:49:59.267Z,86.96
2023-02-01T09:50:59.275Z,86.96
2023-02-01T09:51:59.251Z,87.06
2023-02-01T09:52:59.230Z,87.06
2023-02-01T09:53:59.220Z,87.06
2023-02-01T09:54:59.201Z,87.06
2023-02-01T09:55:59.191Z,87.06
2023-02-01T09:56:59.183Z,87.17
2023-02-01T09:57:59.166Z,87.02
2023-02-01T09:58:59.166Z,86.92
2023-02-01T09:59:59.383Z,86.71
2023-02-01T10:00:59.145Z,86.60
2023-02-01T10:01:59.132Z,86.40
2023-02-01T10:02:59.141Z,86.40
2023-02-01T10:03:59.111Z,86.30
2023-02-01T10:04:59.101Z,85.99
2023-02-01T10:05:59.091Z,86.02
2023-02-01T10:06:59.094Z,86.13
2023-02-01T10:07:59.064Z,86.23
2023-02-01T10:08:59.067Z,86.13
2023-02-01T10:09:59.050Z,86.13
2023-02-01T10:11:59.022Z,86.30
2023-02-01T10:12:59.013Z,86.40
2023-02-01T10:13:58.996Z,86.44
2023-02-01T10:14:59.047Z,86.54
2023-02-01T10:15:59.056Z,86.65
2023-02-01T10:16:59.062Z,86.85
2023-02-01T10:17:59.082Z,86.85
2023-02-01T10:18:58.950Z,86.96
2023-02-01T10:19:58.947Z,86.92
2023-02-01T10:20:58.918Z,87.02
2023-02-01T10:21:58.911Z,87.12
2023-02-01T10:23:26.897Z,87.12
2023-02-01T10:24:01.134Z,87.02
2023-02-01T10:24:58.888Z,87.02
2023-02-01T10:25:58.871Z,87.02
2023-02-01T10:26:58.936Z,87.02
2023-02-01T10:27:58.846Z,86.92
2023-02-01T10:28:58.834Z,86.92
2023-02-01T10:29:58.821Z,86.92
2023-02-01T10:30:58.945Z,86.92
2023-02-01T10:31:58.868Z,86.92
2023-02-01T10:32:58.791Z,86.92
2023-02-01T10:33:58.786Z,87.02
2023-02-01T10:34:58.779Z,86.98
2023-02-01T10:35:58.767Z,86.67
2023-02-01T10:36:58.759Z,86.46
2023-02-01T10:37:58.731Z,86.26
2023-02-01T10:38:58.755Z,86.15
2023-02-01T10:39:58.737Z,86.05
2023-02-01T10:40:58.728Z,85.91
2023-02-01T10:41:58.688Z,85.70
2023-02-01T10:42:58.688Z,85.49
2023-02-01T10:43:58.665Z,85.39
2023-02-01T10:44:58.670Z,85.19
2023-02-01T10:45:58.684Z,84.98
2023-02-01T10:46:58.634Z,84.98
2023-02-01T10:47:58.647Z,85.08
2023-02-01T10:48:58.615Z,85.22
2023-02-01T10:49:58.611Z,85.33
2023-02-01T10:50:58.598Z,85.43
2023-02-01T10:51:58.584Z,85.64
2023-02-01T10:52:58.587Z,85.54
2023-02-01T10:53:58.567Z,85.43
2023-02-01T10:54:58.585Z,85.47
2023-02-01T10:55:58.540Z,85.36
2023-02-01T10:57:00.455Z,85.47
2023-02-01T10:57:58.525Z,85.68
2023-02-01T10:58:58.502Z,85.68
2023-02-01T10:59:58.507Z,85.88
2023-02-01T11:00:58.486Z,85.99
2023-02-01T11:01:59.627Z,86.09
2023-02-01T11:02:58.527Z,86.09
2023-02-01T11:03:58.451Z,86.30
2023-02-01T11:04:58.444Z,86.30
2023-02-01T11:05:58.426Z,86.19
2023-02-01T11:06:58.412Z,86.30
2023-02-01T11:07:58.411Z,86.40
2023-02-01T11:08:58.403Z,86.57
2023-02-01T11:09:58.382Z,86.52
2023-02-01T11:10:58.408Z,86.28
2023-02-01T11:11:58.367Z,85.66
2023-02-01T11:12:58.352Z,85.35
2023-02-01T11:13:58.357Z,85.04
2023-02-01T11:14:58.445Z,85.04
2023-02-01T11:15:58.371Z,84.83
2023-02-01T11:16:58.311Z,84.74
2023-02-01T11:17:58.300Z,84.94
2023-02-01T11:18:58.290Z,84.94
2023-02-01T11:19:58.310Z,84.94
2023-02-01T11:20:58.275Z,84.94
2023-02-01T11:21:58.261Z,84.83
2023-02-01T11:22:58.256Z,84.90
2023-02-01T11:23:58.241Z,84.49
2023-02-01T11:24:58.222Z,84.28
2023-02-01T11:25:58.209Z,84.14
2023-02-01T11:26:58.232Z,84.04
2023-02-01T11:27:58.192Z,84.04
2023-02-01T11:28:58.219Z,83.83
2023-02-01T11:29:58.171Z,83.75
2023-02-01T11:30:58.345Z,83.14
2023-02-01T11:31:58.149Z,82.79
2023-02-01T11:32:58.128Z,81.82
2023-02-01T11:33:58.139Z,81.21
2023-02-01T11:34:58.120Z,81.03
2023-02-01T11:35:58.095Z,79.52
2023-02-01T11:36:58.082Z,78.86
2023-02-01T11:37:58.077Z,77.64
2023-02-01T11:38:58.061Z,76.51
2023-02-01T11:39:58.057Z,76.51
2023-02-01T11:40:58.052Z,76.81
2023-02-01T11:41:58.038Z,76.55
2023-02-01T11:42:58.093Z,76.89
2023-02-01T11:43:58.001Z,77.61
2023-02-01T11:44:57.990Z,77.70
2023-02-01T11:45:57.979Z,77.54
2023-02-01T11:46:57.981Z,78.16
2023-02-01T11:47:57.963Z,78.16
2023-02-01T11:48:57.956Z,78.26
2023-02-01T11:49:57.931Z,78.50
2023-02-01T11:50:57.927Z,78.50
2023-02-01T11:51:57.917Z,79.01
2023-02-01T11:52:57.997Z,79.01
2023-02-01T11:53:57.906Z,78.81
2023-02-01T11:54:57.883Z,79.11
2023-02-01T11:55:57.866Z,79.18
2023-02-01T11:56:57.859Z,79.08
2023-02-01T11:57:57.858Z,78.97
2023-02-01T11:58:57.860Z,78.88
2023-02-01T11:59:57.832Z,78.53
2023-02-01T12:00:57.822Z,77.81
2023-02-01T12:01:57.888Z,77.50
2023-02-01T12:02:57.838Z,77.23
2023-02-01T12:03:57.778Z,77.19
2023-02-01T12:04:57.761Z,77.30
2023-02-01T12:05:57.752Z,77.09
2023-02-01T12:06:57.770Z,76.89
2023-02-01T12:07:57.740Z,76.99
2023-02-01T12:08:57.730Z,77.06
2023-02-01T12:09:57.715Z,75.72
2023-02-01T12:10:57.701Z,75.72
2023-02-01T12:11:57.692Z,75.28
2023-02-01T12:12:57.677Z,75.07
2023-02-01T12:13:57.666Z,74.83
2023-02-01T12:14:57.684Z,74.70
2023-02-01T12:15:57.637Z,74.32
2023-02-01T12:16:57.636Z,74.12
2023-02-01T12:17:57.617Z,74.01
2023-02-01T12:18:57.605Z,74.32
2023-02-01T12:19:57.634Z,74.21
2023-02-01T12:20:57.596Z,74.32
2023-02-01T12:21:57.595Z,74.35
2023-02-01T12:22:57.570Z,74.15
2023-02-01T12:23:57.555Z,74.66
2023-02-01T12:24:57.538Z,74.76
2023-02-01T12:25:57.535Z,74.49
2023-02-01T12:26:57.568Z,74.63
2023-02-01T12:27:57.505Z,74.84
2023-02-01T12:28:57.493Z,75.45
2023-02-01T12:29:57.494Z,75.86
2023-02-01T12:30:57.587Z,76.41
2023-02-01T12:31:57.494Z,76.10
2023-02-01T12:32:57.454Z,76.00
2023-02-01T12:33:57.454Z,76.20
2023-02-01T12:34:57.437Z,76.51
2023-02-01T12:35:57.422Z,77.13
2023-02-01T12:36:57.408Z,77.03
2023-02-01T12:37:57.471Z,77.16
2023-02-01T12:38:57.391Z,76.86
2023-02-01T12:39:57.389Z,76.75
2023-02-01T12:40:57.372Z,76.86
2023-02-01T12:41:57.358Z,77.06
2023-02-01T12:42:57.341Z,77.06
2023-02-01T12:43:57.330Z,77.06
2023-02-01T12:44:57.316Z,77.16
2023-02-01T12:45:57.336Z,76.58
2023-02-01T12:46:57.398Z,76.37
2023-02-01T12:47:57.290Z,76.69
2023-02-01T12:48:57.286Z,76.65
2023-02-01T12:49:57.274Z,76.65
2023-02-01T12:50:57.250Z,76.44
2023-02-01T12:51:57.245Z,76.44
2023-02-01T12:52:57.229Z,76.14